Time;durP1;ratioP1;P1;durP2;ratioP2;P2;SDS_P1;SDS_P2;PMS_P1;PMS_P2;Temp;Humidity;BMP_temperature;BMP_pressure;BME280_temperature;BME280_humidity;BME280_pressure;Samples;Min_cycle;Max_cycle;Signal;HPM_P1;HPM_P2
2021/04/06 00:01:52;;;;;;;8.88;1.50;;;;;;;;;;5124250;27;20073;-81
2021/04/06 00:04:21;;;;;;;9.02;1.42;;;;;;;;;;5128768;27;20039;-81
2021/04/06 00:06:53;;;;;;;8.65;1.15;;;;;;;;;;5126127;27;20103;-81
2021/04/06 00:09:26;;;;;;;9.45;1.05;;;;;;;;;;5131696;27;20386;-81
2021/04/06 00:11:56;;;;;;;5.40;0.93;;;;;;;;;;5127924;27;21852;-81
2021/04/06 00:14:23;;;;;;;7.78;1.40;;;;;;;;;;5126439;27;20036;-80
2021/04/06 00:16:51;;;;;;;8.23;1.65;;;;;;;;;;5127409;28;20474;-81
2021/04/06 00:19:18;;;;;;;11.65;1.50;;;;;;;;;;5128567;28;20035;-80
2021/04/06 00:21:47;;;;;;;10.05;0.93;;;;;;;;;;5091729;28;20043;-80
2021/04/06 00:24:14;;;;;;;12.80;1.50;;;;;;;;;;5128163;27;20092;-80
2021/04/06 00:26:48;;;;;;;14.80;3.90;;;;;;;;;;5090141;28;20486;-79
2021/04/06 00:29:14;;;;;;;;;;;;;;;;;;5107138;28;20043;-81
2021/04/06 00:31:42;;;;;;;13.35;1.38;;;;;;;;;;5137187;27;20361;-80
2021/04/06 00:34:08;;;;;;;14.70;1.58;;;;;;;;;;5127657;28;20036;-81
2021/04/06 00:36:35;;;;;;;11.40;1.40;;;;;;;;;;5130358;28;20039;-81
2021/04/06 00:39:01;;;;;;;10.18;1.73;;;;;;;;;;5126005;28;20122;-81
2021/04/06 00:41:28;;;;;;;17.52;1.90;;;;;;;;;;5124601;28;20042;-81
2021/04/06 00:43:54;;;;;;;16.25;1.98;;;;;;;;;;5128811;28;20031;-80
2021/04/06 00:46:22;;;;;;;14.65;1.90;;;;;;;;;;5125515;28;20077;-80
2021/04/06 00:48:51;;;;;;;12.10;1.77;;;;;;;;;;5124587;28;20063;-80
2021/04/06 00:51:21;;;;;;;18.73;3.30;;;;;;;;;;5130186;28;20037;-80
2021/04/06 00:53:53;;;;;;;19.50;2.42;;;;;;;;;;5127876;28;20138;-81
2021/04/06 00:56:22;;;;;;;22.90;2.70;;;;;;;;;;5130615;27;20100;-80
2021/04/06 00:58:55;;;;;;;25.35;3.25;;;;;;;;;;5130466;27;20449;-80
2021/04/06 01:01:29;;;;;;;20.00;3.05;;;;;;;;;;5123374;27;20122;-80
2021/04/06 01:03:58;;;;;;;17.77;2.42;;;;;;;;;;5126534;28;20107;-80
2021/04/06 01:06:25;;;;;;;18.42;2.47;;;;;;;;;;5135706;27;20048;-80
2021/04/06 01:08:53;;;;;;;10.18;1.70;;;;;;;;;;5121942;28;20043;-79
2021/04/06 01:11:19;;;;;;;14.90;2.22;;;;;;;;;;5126055;28;20039;-79
2021/04/06 01:13:45;;;;;;;16.05;2.25;;;;;;;;;;5122432;28;20031;-80
2021/04/06 01:16:12;;;;;;;11.23;2.05;;;;;;;;;;5124749;27;20043;-79
2021/04/06 01:18:39;;;;;;;13.70;1.83;;;;;;;;;;5127275;28;20023;-78
2021/04/06 01:21:10;;;;;;;12.68;2.10;;;;;;;;;;5093717;28;20372;-79
2021/04/06 01:23:37;;;;;;;12.70;2.00;;;;;;;;;;5124827;27;20490;-77
2021/04/06 01:26:03;;;;;;;17.55;1.80;;;;;;;;;;5130941;27;20039;-79
2021/04/06 01:28:30;;;;;;;14.55;2.08;;;;;;;;;;5130810;27;20031;-79
2021/04/06 01:30:58;;;;;;;11.82;2.38;;;;;;;;;;5126970;27;20038;-79
2021/04/06 01:33:26;;;;;;;19.58;2.65;;;;;;;;;;5130734;27;20444;-79
2021/04/06 01:35:53;;;;;;;23.48;3.60;;;;;;;;;;5155853;27;20096;-79
2021/04/06 01:38:23;;;;;;;18.90;2.90;;;;;;;;;;5132631;27;20035;-79
2021/04/06 01:40:49;;;;;;;27.38;3.53;;;;;;;;;;5128373;27;20059;-80
2021/04/06 01:43:17;;;;;;;28.90;3.72;;;;;;;;;;5130652;27;20035;-79
2021/04/06 01:45:45;;;;;;;28.67;4.00;;;;;;;;;;5128370;27;20070;-79
2021/04/06 01:48:15;;;;;;;26.48;3.85;;;;;;;;;;5130301;27;20055;-80
2021/04/06 01:50:42;;;;;;;22.60;3.70;;;;;;;;;;5147539;27;20483;-79
2021/04/06 01:53:08;;;;;;;21.98;3.47;;;;;;;;;;5116041;27;20512;-80
2021/04/06 01:55:39;;;;;;;21.73;3.17;;;;;;;;;;5127334;27;20047;-79
2021/04/06 01:58:06;;;;;;;27.35;3.47;;;;;;;;;;5125040;27;20062;-79
2021/04/06 02:00:55;;;;;;;23.65;3.58;;;;;;;;;;5093742;27;20059;-79
2021/04/06 02:03:22;;;;;;;16.88;2.88;;;;;;;;;;5131668;27;20114;-80
2021/04/06 02:05:49;;;;;;;21.92;3.05;;;;;;;;;;5104937;27;20150;-79
2021/04/06 02:08:18;;;;;;;20.30;2.97;;;;;;;;;;5131185;27;20043;-79
2021/04/06 02:10:45;;;;;;;17.05;2.65;;;;;;;;;;5126636;27;20035;-79
2021/04/06 02:13:12;;;;;;;19.70;2.95;;;;;;;;;;5126936;27;20659;-80
2021/04/06 02:15:40;;;;;;;21.20;3.03;;;;;;;;;;5127446;27;20050;-79
2021/04/06 02:18:07;;;;;;;29.35;2.83;;;;;;;;;;5130976;27;20474;-80
2021/04/06 02:20:33;;;;;;;20.92;2.47;;;;;;;;;;5093630;27;20435;-78
2021/04/06 02:23:00;;;;;;;21.50;3.08;;;;;;;;;;5111740;27;20043;-80
2021/04/06 02:25:27;;;;;;;16.83;2.33;;;;;;;;;;5160426;27;20070;-79
2021/04/06 02:27:53;;;;;;;22.65;2.60;;;;;;;;;;5117986;27;20043;-78
2021/04/06 02:30:29;;;;;;;15.55;2.33;;;;;;;;;;5128673;27;20390;-78
2021/04/06 02:32:57;;;;;;;31.20;4.28;;;;;;;;;;5124366;27;20402;-79
2021/04/06 02:35:23;;;;;;;22.38;3.28;;;;;;;;;;5132977;27;20035;-80
2021/04/06 02:37:50;;;;;;;24.85;3.17;;;;;;;;;;5128429;27;20036;-80
2021/04/06 02:40:18;;;;;;;24.23;3.63;;;;;;;;;;5131689;27;20035;-80
2021/04/06 02:42:46;;;;;;;18.42;4.03;;;;;;;;;;5122612;27;20119;-79
2021/04/06 02:45:20;;;;;;;22.17;3.28;;;;;;;;;;5130233;27;20128;-79
2021/04/06 02:47:47;;;;;;;;;;;;;;;;;;5124360;27;20046;-79
2021/04/06 02:50:17;;;;;;;28.35;4.03;;;;;;;;;;5128406;27;20282;-79
2021/04/06 02:52:43;;;;;;;29.88;4.97;;;;;;;;;;5127704;27;20043;-80
2021/04/06 02:55:11;;;;;;;19.13;2.65;;;;;;;;;;5111071;27;20074;-81
2021/04/06 02:57:41;;;;;;;16.55;2.45;;;;;;;;;;5125947;27;20478;-79
2021/04/06 03:00:08;;;;;;;14.45;2.22;;;;;;;;;;5129997;27;20042;-80
2021/04/06 03:02:41;;;;;;;23.58;2.47;;;;;;;;;;5134512;27;20043;-79
2021/04/06 03:05:08;;;;;;;19.27;2.30;;;;;;;;;;5125661;27;20116;-79
2021/04/06 03:07:44;;;;;;;15.20;2.45;;;;;;;;;;5124795;27;20297;-79
2021/04/06 03:10:17;;;;;;;22.85;3.72;;;;;;;;;;5132006;27;20058;-79
2021/04/06 03:12:43;;;;;;;22.02;2.90;;;;;;;;;;5121976;27;20035;-79
2021/04/06 03:15:10;;;;;;;21.75;3.67;;;;;;;;;;5127582;27;20067;-79
2021/04/06 03:17:48;;;;;;;19.13;2.80;;;;;;;;;;5125066;27;20058;-79
2021/04/06 03:20:14;;;;;;;18.95;3.13;;;;;;;;;;5144154;27;20035;-79
2021/04/06 03:22:40;;;;;;;21.48;3.83;;;;;;;;;;5107946;27;20122;-79
2021/04/06 03:25:07;;;;;;;31.45;3.38;;;;;;;;;;5103920;27;20039;-80
2021/04/06 03:27:33;;;;;;;19.92;3.67;;;;;;;;;;5129782;27;20031;-79
2021/04/06 03:30:00;;;;;;;17.33;2.47;;;;;;;;;;5110218;27;20356;-80
2021/04/06 03:32:27;;;;;;;23.00;3.00;;;;;;;;;;5129515;27;20035;-80
2021/04/06 03:34:54;;;;;;;25.50;3.38;;;;;;;;;;5122934;27;20036;-80
2021/04/06 03:37:23;;;;;;;20.00;3.38;;;;;;;;;;5090058;27;20132;-80
2021/04/06 03:39:51;;;;;;;22.17;3.85;;;;;;;;;;5129190;27;20043;-80
2021/04/06 03:42:27;;;;;;;17.02;2.83;;;;;;;;;;5125563;27;20043;-81
2021/04/06 03:45:09;;;;;;;17.27;2.65;;;;;;;;;;5136089;27;20051;-80
2021/04/06 03:47:54;;;;;;;19.60;3.28;;;;;;;;;;5124033;27;20139;-80
2021/04/06 03:50:40;;;;;;;21.25;3.53;;;;;;;;;;5123125;27;20133;-80
2021/04/06 03:53:07;;;;;;;19.95;3.75;;;;;;;;;;5124926;27;20047;-81
2021/04/06 03:55:34;;;;;;;16.20;2.88;;;;;;;;;;5126907;27;20051;-81
2021/04/06 03:58:05;;;;;;;18.75;3.70;;;;;;;;;;5123798;27;20035;-81
2021/04/06 04:00:31;;;;;;;22.85;3.47;;;;;;;;;;5127579;27;20170;-81
2021/04/06 04:03:01;;;;;;;21.30;3.00;;;;;;;;;;5109756;28;20047;-81
2021/04/06 04:05:27;;;;;;;18.65;2.75;;;;;;;;;;5117859;27;20039;-81
2021/04/06 04:07:54;;;;;;;18.05;3.05;;;;;;;;;;5126790;27;20497;-80
2021/04/06 04:10:20;;;;;;;11.38;2.15;;;;;;;;;;5133163;27;20077;-81
2021/04/06 04:12:46;;;;;;;17.30;2.70;;;;;;;;;;5123120;27;20595;-81
2021/04/06 04:15:13;;;;;;;13.95;2.10;;;;;;;;;;5130885;27;20039;-81
2021/04/06 04:17:39;;;;;;;18.17;2.67;;;;;;;;;;5122816;27;20031;-80
2021/04/06 04:20:15;;;;;;;11.35;2.88;;;;;;;;;;5129030;28;20046;-80
2021/04/06 04:22:41;;;;;;;16.63;2.70;;;;;;;;;;5125854;28;20035;-80
2021/04/06 04:25:09;;;;;;;14.80;2.70;;;;;;;;;;5125886;28;20039;-80
2021/04/06 04:27:36;;;;;;;17.02;2.47;;;;;;;;;;5128328;28;20511;-80
2021/04/06 04:30:02;;;;;;;14.88;1.98;;;;;;;;;;5124341;28;20039;-81
2021/04/06 04:32:28;;;;;;;15.05;2.42;;;;;;;;;;5129447;28;20027;-81
2021/04/06 04:34:55;;;;;;;10.18;1.85;;;;;;;;;;5120876;28;20553;-82
2021/04/06 04:37:21;;;;;;;13.10;2.70;;;;;;;;;;5108142;28;20035;-84
2021/04/06 04:39:47;;;;;;;19.00;2.13;;;;;;;;;;5119777;28;20313;-81
2021/04/06 04:42:13;;;;;;;20.27;2.47;;;;;;;;;;5121684;28;20039;-81
2021/04/06 04:44:40;;;;;;;11.77;2.97;;;;;;;;;;5094368;28;20050;-81
2021/04/06 04:47:06;;;;;;;12.55;2.20;;;;;;;;;;5110194;28;20055;-81
2021/04/06 04:49:32;;;;;;;10.98;2.00;;;;;;;;;;5128062;28;20058;-81
2021/04/06 04:51:58;;;;;;;12.35;1.92;;;;;;;;;;5123629;28;20039;-82
2021/04/06 04:54:24;;;;;;;10.32;1.35;;;;;;;;;;5129498;28;20035;-82
2021/04/06 04:56:50;;;;;;;9.35;1.10;;;;;;;;;;5123781;28;20128;-84
2021/04/06 04:59:17;;;;;;;5.25;1.45;;;;;;;;;;5103273;28;20039;-81
2021/04/06 05:01:43;;;;;;;8.85;1.60;;;;;;;;;;5121459;27;20119;-87
2021/04/06 05:04:09;;;;;;;8.30;1.38;;;;;;;;;;5132591;27;20058;-82
2021/04/06 05:06:35;;;;;;;9.60;1.58;;;;;;;;;;5118344;27;20043;-80
2021/04/06 05:09:02;;;;;;;11.35;1.60;;;;;;;;;;5115246;27;20379;-80
2021/04/06 05:11:29;;;;;;;6.28;1.10;;;;;;;;;;5145408;27;20104;-80
2021/04/06 05:13:55;;;;;;;9.38;1.70;;;;;;;;;;5114215;28;20493;-80
2021/04/06 05:16:21;;;;;;;8.60;1.70;;;;;;;;;;5108908;27;20469;-81
2021/04/06 05:18:47;;;;;;;8.70;1.23;;;;;;;;;;5113581;27;20237;-80
2021/04/06 05:21:13;;;;;;;6.60;1.55;;;;;;;;;;5115568;27;20083;-80
2021/04/06 05:23:39;;;;;;;5.55;1.08;;;;;;;;;;5117285;27;20401;-80
2021/04/06 05:26:06;;;;;;;12.02;2.70;;;;;;;;;;5112629;28;20050;-80
2021/04/06 05:28:32;;;;;;;10.18;1.73;;;;;;;;;;5106798;27;20055;-79
2021/04/06 05:30:58;;;;;;;13.85;2.65;;;;;;;;;;5124881;27;20367;-82
2021/04/06 05:33:24;;;;;;;12.68;1.60;;;;;;;;;;5110817;28;20084;-81
2021/04/06 05:35:52;;;;;;;11.90;2.22;;;;;;;;;;5133095;27;20042;-82
2021/04/06 05:38:18;;;;;;;9.30;1.73;;;;;;;;;;5110956;27;20055;-79
2021/04/06 05:40:44;;;;;;;13.77;2.05;;;;;;;;;;5093418;27;20048;-84
2021/04/06 05:43:16;;;;;;;10.38;2.42;;;;;;;;;;5122651;27;20474;-89
2021/04/06 05:45:48;;;;;;;14.90;2.60;;;;;;;;;;5120961;27;20070;-78
2021/04/06 05:48:16;;;;;;;7.40;2.22;;;;;;;;;;5138994;27;20578;-79
2021/04/06 05:50:46;;;;;;;11.38;1.92;;;;;;;;;;5159768;27;20034;-77
2021/04/06 05:53:13;;;;;;;11.77;2.33;;;;;;;;;;5132046;27;20063;-77
2021/04/06 05:55:40;;;;;;;9.75;2.80;;;;;;;;;;5133016;27;20138;-75
2021/04/06 05:58:06;;;;;;;6.65;1.67;;;;;;;;;;5147787;27;20044;-75
2021/04/06 06:00:32;;;;;;;11.98;2.38;;;;;;;;;;5122313;27;20497;-75
2021/04/06 06:02:59;;;;;;;8.32;1.55;;;;;;;;;;5137735;27;20066;-76
2021/04/06 06:05:25;;;;;;;8.02;2.58;;;;;;;;;;5137834;27;20046;-75
2021/04/06 06:07:51;;;;;;;8.90;2.15;;;;;;;;;;5107228;27;20428;-75
2021/04/06 06:10:24;;;;;;;11.75;2.38;;;;;;;;;;5119262;27;20035;-76
2021/04/06 06:12:51;;;;;;;9.10;2.37;;;;;;;;;;5110489;27;20482;-75
2021/04/06 06:15:17;;;;;;;8.80;1.48;;;;;;;;;;5134601;27;20564;-75
2021/04/06 06:18:01;;;;;;;9.73;1.80;;;;;;;;;;5116508;27;20035;-75
2021/04/06 06:20:27;;;;;;;5.75;1.30;;;;;;;;;;5120350;27;20047;-76
2021/04/06 06:22:53;;;;;;;8.52;2.10;;;;;;;;;;5126174;27;20065;-75
2021/04/06 06:25:19;;;;;;;10.25;1.88;;;;;;;;;;5133810;27;20039;-75
2021/04/06 06:27:47;;;;;;;8.25;1.75;;;;;;;;;;5116456;27;20125;-75
2021/04/06 06:30:23;;;;;;;4.60;1.80;;;;;;;;;;5117189;27;20491;-77
2021/04/06 06:33:10;;;;;;;3.47;1.08;;;;;;;;;;5093472;27;20043;-76
2021/04/06 06:35:36;;;;;;;2.80;0.77;;;;;;;;;;5107104;28;20078;-75
2021/04/06 06:38:45;;;;;;;3.85;1.17;;;;;;;;;;5112784;28;20053;-75
2021/04/06 06:41:12;;;;;;;4.90;1.13;;;;;;;;;;5051160;28;20156;-76
2021/04/06 06:43:39;;;;;;;4.90;0.95;;;;;;;;;;5120704;27;20051;-75
2021/04/06 06:46:16;;;;;;;9.00;1.80;;;;;;;;;;5115315;27;20051;-75
2021/04/06 06:48:52;;;;;;;11.45;2.53;;;;;;;;;;5130680;27;20052;-75
2021/04/06 06:51:20;;;;;;;11.75;2.38;;;;;;;;;;5130171;27;20273;-75
2021/04/06 06:53:47;;;;;;;8.70;1.48;;;;;;;;;;5133452;27;20081;-75
2021/04/06 06:56:13;;;;;;;5.53;1.80;;;;;;;;;;5133014;27;20516;-78
2021/04/06 06:58:43;;;;;;;8.55;1.63;;;;;;;;;;5106056;27;20032;-76
2021/04/06 07:01:25;;;;;;;3.80;1.20;;;;;;;;;;5113826;27;20050;-76
2021/04/06 07:04:02;;;;;;;5.10;1.55;;;;;;;;;;5112935;28;20039;-75
2021/04/06 07:06:28;;;;;;;5.78;1.48;;;;;;;;;;5094262;27;20050;-75
2021/04/06 07:08:55;;;;;;;4.05;1.27;;;;;;;;;;5132797;27;20035;-74
2021/04/06 07:11:22;;;;;;;5.25;1.23;;;;;;;;;;5131057;27;20059;-75
2021/04/06 07:13:50;;;;;;;5.60;1.13;;;;;;;;;;5123739;27;20043;-74
2021/04/06 07:16:17;;;;;;;9.73;1.45;;;;;;;;;;5121569;27;20409;-74
2021/04/06 07:18:44;;;;;;;6.35;1.15;;;;;;;;;;5151669;27;20071;-74
2021/04/06 07:21:11;;;;;;;7.28;1.60;;;;;;;;;;5120447;27;20034;-74
2021/04/06 07:23:39;;;;;;;6.13;1.10;;;;;;;;;;5115387;27;20497;-74
2021/04/06 07:26:09;;;;;;;6.97;1.20;;;;;;;;;;5124400;27;20051;-74
2021/04/06 07:28:36;;;;;;;4.57;1.48;;;;;;;;;;5113786;27;20051;-73
2021/04/06 07:31:03;;;;;;;8.93;1.50;;;;;;;;;;5143507;27;20047;-76
2021/04/06 07:33:30;;;;;;;5.90;1.35;;;;;;;;;;5141058;27;20050;-75
2021/04/06 07:35:58;;;;;;;4.65;0.70;;;;;;;;;;5118848;27;20050;-75
2021/04/06 07:38:24;;;;;;;9.88;1.75;;;;;;;;;;5113069;27;20043;-75
2021/04/06 07:40:52;;;;;;;4.75;1.65;;;;;;;;;;5132435;27;20039;-74
2021/04/06 07:43:18;;;;;;;6.93;1.33;;;;;;;;;;5123291;27;20039;-77
2021/04/06 07:45:44;;;;;;;5.07;1.00;;;;;;;;;;5107767;27;20137;-75
2021/04/06 07:48:11;;;;;;;5.72;1.00;;;;;;;;;;5128423;27;20113;-75
2021/04/06 07:50:50;;;;;;;4.45;0.90;;;;;;;;;;5094921;28;20051;-74
2021/04/06 07:53:27;;;;;;;5.68;1.20;;;;;;;;;;5121290;27;20047;-75
2021/04/06 07:55:55;;;;;;;6.65;1.13;;;;;;;;;;5124476;27;20385;-77
2021/04/06 07:58:40;;;;;;;8.45;1.65;;;;;;;;;;5125511;27;20085;-79
2021/04/06 08:01:06;;;;;;;8.80;1.63;;;;;;;;;;5129091;27;20578;-82
2021/04/06 08:03:51;;;;;;;8.98;1.65;;;;;;;;;;5114903;27;20059;-77
2021/04/06 08:06:17;;;;;;;3.85;1.10;;;;;;;;;;5129149;27;20501;-76
2021/04/06 08:08:44;;;;;;;4.93;1.05;;;;;;;;;;5133247;27;20474;-76
2021/04/06 08:11:10;;;;;;;5.93;1.17;;;;;;;;;;5133130;27;20095;-76
2021/04/06 08:13:36;;;;;;;6.63;1.45;;;;;;;;;;5112536;28;20043;-77
2021/04/06 08:16:16;;;;;;;9.32;1.50;;;;;;;;;;5132188;27;20043;-76
2021/04/06 08:18:48;;;;;;;5.90;1.00;;;;;;;;;;5133140;27;20039;-80
2021/04/06 08:21:15;;;;;;;10.88;1.85;;;;;;;;;;5130510;28;20084;-74
2021/04/06 08:23:41;;;;;;;6.53;0.80;;;;;;;;;;5095153;28;20080;-74
2021/04/06 08:26:24;;;;;;;10.20;1.10;;;;;;;;;;5121914;27;20044;-74
2021/04/06 08:28:50;;;;;;;5.47;1.08;;;;;;;;;;5129777;27;20100;-75
2021/04/06 08:31:19;;;;;;;6.97;1.55;;;;;;;;;;5131673;28;20059;-75
2021/04/06 08:33:45;;;;;;;6.75;1.35;;;;;;;;;;5133533;27;20364;-76
2021/04/06 08:36:11;;;;;;;5.47;1.10;;;;;;;;;;5118692;27;20066;-75
2021/04/06 08:38:38;;;;;;;8.85;1.38;;;;;;;;;;5153257;27;20035;-74
2021/04/06 08:41:29;;;;;;;5.15;1.23;;;;;;;;;;5150723;27;20047;-75
2021/04/06 08:43:56;;;;;;;4.38;0.80;;;;;;;;;;5146225;27;20127;-74
2021/04/06 08:46:25;;;;;;;4.57;1.02;;;;;;;;;;5134088;27;20043;-75
2021/04/06 08:48:52;;;;;;;3.80;1.05;;;;;;;;;;5134677;27;20058;-77
2021/04/06 08:51:23;;;;;;;8.98;1.27;;;;;;;;;;5097545;27;20044;-77
2021/04/06 08:53:50;;;;;;;6.45;1.60;;;;;;;;;;5136762;27;20405;-76
2021/04/06 08:56:17;;;;;;;11.68;2.10;;;;;;;;;;5118177;27;20051;-77
2021/04/06 08:58:43;;;;;;;7.78;1.90;;;;;;;;;;5116594;27;20035;-77
2021/04/06 09:01:09;;;;;;;10.25;1.95;;;;;;;;;;5119367;27;20043;-78
2021/04/06 09:03:36;;;;;;;8.60;1.85;;;;;;;;;;5114629;28;20067;-77
2021/04/06 09:06:12;;;;;;;8.70;1.90;;;;;;;;;;5124444;27;20544;-81
2021/04/06 09:08:48;;;;;;;9.10;2.03;;;;;;;;;;5135173;27;20051;-76
2021/04/06 09:11:21;;;;;;;9.55;2.28;;;;;;;;;;5117809;27;20505;-77
2021/04/06 09:13:49;;;;;;;8.38;2.08;;;;;;;;;;5136710;27;20045;-76
2021/04/06 09:16:22;;;;;;;9.43;1.85;;;;;;;;;;5135100;27;20080;-77
2021/04/06 09:18:52;;;;;;;7.50;1.67;;;;;;;;;;5131144;27;20158;-77
2021/04/06 09:21:21;;;;;;;10.43;1.83;;;;;;;;;;5135065;27;20336;-77
2021/04/06 09:23:50;;;;;;;8.30;1.60;;;;;;;;;;5134602;27;20043;-75
2021/04/06 09:26:16;;;;;;;8.90;1.63;;;;;;;;;;5114525;27;20043;-74
2021/04/06 09:28:43;;;;;;;8.23;1.40;;;;;;;;;;5116126;27;20378;-74
2021/04/06 09:31:09;;;;;;;9.32;1.88;;;;;;;;;;5134194;27;20035;-75
2021/04/06 09:33:37;;;;;;;9.50;1.90;;;;;;;;;;5133648;27;20043;-76
2021/04/06 09:36:03;;;;;;;8.90;1.88;;;;;;;;;;5114332;28;20039;-74
2021/04/06 09:38:29;;;;;;;14.65;2.22;;;;;;;;;;5122248;27;20046;-76
2021/04/06 09:40:56;;;;;;;11.73;2.45;;;;;;;;;;5132195;27;20546;-77
2021/04/06 09:43:23;;;;;;;10.38;1.70;;;;;;;;;;5134759;27;20035;-78
2021/04/06 09:45:50;;;;;;;16.13;3.20;;;;;;;;;;5100654;27;20510;-74
2021/04/06 09:48:16;;;;;;;15.50;2.15;;;;;;;;;;5114647;27;20466;-74
2021/04/06 09:50:57;;;;;;;11.82;2.13;;;;;;;;;;5128151;27;20054;-74
2021/04/06 09:53:24;;;;;;;11.32;2.13;;;;;;;;;;5131323;27;20035;-75
2021/04/06 09:55:51;;;;;;;13.68;2.40;;;;;;;;;;5133062;27;20063;-74
2021/04/06 09:58:17;;;;;;;19.63;3.10;;;;;;;;;;5134105;27;20039;-72
2021/04/06 10:00:44;;;;;;;6.43;1.13;;;;;;;;;;5131446;27;20059;-72
2021/04/06 10:03:14;;;;;;;10.32;1.88;;;;;;;;;;5134248;27;20062;-72
2021/04/06 10:05:43;;;;;;;10.75;1.35;;;;;;;;;;5132538;27;20040;-80
2021/04/06 10:08:09;;;;;;;11.20;1.50;;;;;;;;;;5131182;27;20055;-83
2021/04/06 10:10:36;;;;;;;12.02;1.85;;;;;;;;;;5129598;27;20043;-76
2021/04/06 10:13:03;;;;;;;12.70;2.05;;;;;;;;;;5132418;27;20374;-78
2021/04/06 10:15:31;;;;;;;12.23;1.88;;;;;;;;;;5137948;27;20540;-76
2021/04/06 10:18:06;;;;;;;9.93;2.13;;;;;;;;;;5134457;27;20112;-75
2021/04/06 10:20:37;;;;;;;8.85;2.22;;;;;;;;;;5136048;27;20035;-75
2021/04/06 10:23:03;;;;;;;9.23;1.90;;;;;;;;;;5130749;27;20039;-81
2021/04/06 10:25:34;;;;;;;13.18;2.20;;;;;;;;;;5130246;27;20050;-80
2021/04/06 10:28:01;;;;;;;10.05;1.98;;;;;;;;;;5130540;27;20043;-78
2021/04/06 10:30:33;;;;;;;11.07;1.90;;;;;;;;;;5142504;27;20384;-77
2021/04/06 10:33:05;;;;;;;13.38;2.13;;;;;;;;;;5127641;27;20146;-77
2021/04/06 10:35:33;;;;;;;13.35;2.30;;;;;;;;;;5123004;27;20050;-77
2021/04/06 10:38:04;;;;;;;11.93;1.70;;;;;;;;;;5120117;27;20482;-77
2021/04/06 10:40:36;;;;;;;12.50;2.38;;;;;;;;;;5125630;27;20054;-75
2021/04/06 10:43:22;;;;;;;12.85;2.95;;;;;;;;;;5119402;27;20434;-76
2021/04/06 10:45:49;;;;;;;9.45;1.85;;;;;;;;;;5122905;27;20514;-76
2021/04/06 10:48:18;;;;;;;12.55;2.10;;;;;;;;;;5104662;27;20054;-78
2021/04/06 10:50:46;;;;;;;13.07;2.22;;;;;;;;;;5154011;27;20481;-76
2021/04/06 10:53:16;;;;;;;13.18;2.17;;;;;;;;;;5133844;27;20039;-76
2021/04/06 10:55:43;;;;;;;11.82;1.90;;;;;;;;;;5133133;27;20043;-76
2021/04/06 10:58:09;;;;;;;8.57;1.25;;;;;;;;;;5132395;27;20114;-76
2021/04/06 11:00:37;;;;;;;9.90;1.30;;;;;;;;;;5131908;27;20100;-76
2021/04/06 11:03:10;;;;;;;7.80;1.40;;;;;;;;;;5128086;27;20035;-75
2021/04/06 11:05:38;;;;;;;8.07;1.45;;;;;;;;;;5123950;27;20051;-75
2021/04/06 11:08:20;;;;;;;9.48;2.13;;;;;;;;;;5122995;27;20089;-73
2021/04/06 11:10:46;;;;;;;12.68;2.50;;;;;;;;;;5129039;27;20196;-78
2021/04/06 11:13:13;;;;;;;19.65;2.53;;;;;;;;;;5129369;27;20027;-77
2021/04/06 11:15:41;;;;;;;15.55;2.78;;;;;;;;;;5122079;27;20123;-79
2021/04/06 11:18:08;;;;;;;13.50;1.85;;;;;;;;;;5111679;27;20059;-78
2021/04/06 11:20:34;;;;;;;15.57;2.45;;;;;;;;;;5125796;27;20043;-77
2021/04/06 11:23:00;;;;;;;17.98;3.42;;;;;;;;;;5125710;27;20035;-77
2021/04/06 11:25:26;;;;;;;13.27;2.25;;;;;;;;;;5128887;27;20047;-77
2021/04/06 11:27:58;;;;;;;12.32;2.80;;;;;;;;;;5111240;28;20036;-76
2021/04/06 11:30:25;;;;;;;12.07;2.00;;;;;;;;;;5123850;27;20031;-77
2021/04/06 11:32:51;;;;;;;10.85;2.08;;;;;;;;;;5125791;27;20051;-77
2021/04/06 11:35:17;;;;;;;11.52;1.88;;;;;;;;;;5123092;27;20038;-77
2021/04/06 11:37:43;;;;;;;13.43;2.72;;;;;;;;;;5125404;27;20103;-78
2021/04/06 11:40:10;;;;;;;19.35;3.05;;;;;;;;;;5128772;27;20103;-78
2021/04/06 11:42:36;;;;;;;11.48;2.67;;;;;;;;;;5130386;27;20035;-78
2021/04/06 11:45:03;;;;;;;13.20;2.05;;;;;;;;;;5124073;27;20027;-78
2021/04/06 11:47:31;;;;;;;14.80;2.80;;;;;;;;;;5125704;27;20031;-78
2021/04/06 11:49:57;;;;;;;9.80;2.42;;;;;;;;;;5149307;27;20045;-78
2021/04/06 11:52:23;;;;;;;11.55;2.33;;;;;;;;;;5126128;27;20035;-78
2021/04/06 11:54:50;;;;;;;4.35;1.52;;;;;;;;;;5123068;27;20080;-77
2021/04/06 11:57:16;;;;;;;11.10;2.85;;;;;;;;;;5130734;27;20101;-77
2021/04/06 11:59:44;;;;;;;8.55;1.23;;;;;;;;;;5126711;27;20035;-79
2021/04/06 12:02:13;;;;;;;8.05;1.30;;;;;;;;;;5121718;27;20678;-78
2021/04/06 12:04:41;;;;;;;5.15;1.00;;;;;;;;;;5124983;27;20662;-78
2021/04/06 12:07:07;;;;;;;6.93;1.40;;;;;;;;;;5112004;27;20043;-77
2021/04/06 12:09:33;;;;;;;9.80;1.13;;;;;;;;;;5124813;27;20035;-78
2021/04/06 12:12:01;;;;;;;10.70;1.75;;;;;;;;;;5129663;27;20071;-78
2021/04/06 12:14:27;;;;;;;11.52;2.00;;;;;;;;;;5129933;27;20049;-77
2021/04/06 12:16:53;;;;;;;12.52;1.90;;;;;;;;;;5129316;27;20402;-77
2021/04/06 12:19:19;;;;;;;12.70;2.05;;;;;;;;;;5124029;27;20039;-76
2021/04/06 12:21:46;;;;;;;16.48;2.47;;;;;;;;;;5128768;28;20112;-76
2021/04/06 12:24:12;;;;;;;14.55;2.42;;;;;;;;;;5121430;28;20471;-76
2021/04/06 12:26:38;;;;;;;15.27;2.65;;;;;;;;;;5107316;28;20035;-76
2021/04/06 12:29:04;;;;;;;18.63;3.55;;;;;;;;;;5128307;28;20035;-77
2021/04/06 12:31:30;;;;;;;16.63;2.80;;;;;;;;;;5107592;28;20084;-76
2021/04/06 12:33:57;;;;;;;14.00;2.30;;;;;;;;;;5108858;28;20281;-77
2021/04/06 12:36:23;;;;;;;16.02;2.63;;;;;;;;;;5126475;27;20142;-72
2021/04/06 12:38:49;;;;;;;17.13;3.00;;;;;;;;;;5120820;28;20048;-74
2021/04/06 12:41:16;;;;;;;18.20;3.10;;;;;;;;;;5137583;27;20038;-73
2021/04/06 12:43:42;;;;;;;13.25;2.75;;;;;;;;;;5105792;28;20054;-74
2021/04/06 12:46:09;;;;;;;10.55;2.55;;;;;;;;;;5118542;28;20054;-74
2021/04/06 12:48:35;;;;;;;11.57;2.80;;;;;;;;;;5122315;28;20039;-74
2021/04/06 12:51:01;;;;;;;12.68;2.88;;;;;;;;;;5154112;27;20041;-75
2021/04/06 12:53:27;;;;;;;15.13;2.78;;;;;;;;;;5109047;28;20089;-75
2021/04/06 12:55:55;;;;;;;9.75;2.47;;;;;;;;;;5130734;28;20039;-75
2021/04/06 12:58:22;;;;;;;13.95;2.58;;;;;;;;;;5117167;27;20046;-74
2021/04/06 13:00:49;;;;;;;13.15;2.60;;;;;;;;;;5126074;28;20101;-75
2021/04/06 13:03:15;;;;;;;10.10;2.10;;;;;;;;;;5126684;28;20477;-75
2021/04/06 13:05:41;;;;;;;14.30;2.55;;;;;;;;;;5113232;28;20051;-75
2021/04/06 13:08:09;;;;;;;17.15;3.10;;;;;;;;;;5113526;28;20055;-74
2021/04/06 13:10:39;;;;;;;16.75;2.80;;;;;;;;;;5129112;28;20122;-75
2021/04/06 13:13:05;;;;;;;18.15;2.40;;;;;;;;;;5128733;28;20136;-75
2021/04/06 13:15:31;;;;;;;13.30;2.35;;;;;;;;;;5128393;27;20091;-74
2021/04/06 13:17:57;;;;;;;11.70;2.40;;;;;;;;;;5110738;28;20150;-78
2021/04/06 13:20:24;;;;;;;16.95;3.72;;;;;;;;;;5106705;28;20035;-76
2021/04/06 13:22:50;;;;;;;15.60;2.40;;;;;;;;;;5127267;27;20035;-81
2021/04/06 13:25:16;;;;;;;11.73;2.38;;;;;;;;;;5135778;27;20207;-79
2021/04/06 13:27:43;;;;;;;21.70;2.85;;;;;;;;;;5133106;27;20050;-79
2021/04/06 13:30:12;;;;;;;14.75;2.50;;;;;;;;;;5131142;27;20171;-76
2021/04/06 13:32:38;;;;;;;15.55;2.20;;;;;;;;;;5154147;27;20127;-76
2021/04/06 13:35:05;;;;;;;15.15;1.83;;;;;;;;;;5128065;27;20128;-79
2021/04/06 13:37:32;;;;;;;7.03;1.40;;;;;;;;;;5130043;27;20044;-76
2021/04/06 13:39:58;;;;;;;11.95;1.55;;;;;;;;;;5126219;27;20052;-76
2021/04/06 13:42:24;;;;;;;9.15;2.13;;;;;;;;;;5114795;27;20063;-76
2021/04/06 13:44:50;;;;;;;12.75;2.25;;;;;;;;;;5129984;27;20035;-78
2021/04/06 13:47:17;;;;;;;14.60;2.17;;;;;;;;;;5127375;27;20130;-76
2021/04/06 13:49:43;;;;;;;19.23;2.10;;;;;;;;;;5126095;27;20158;-80
2021/04/06 13:52:10;;;;;;;10.35;2.17;;;;;;;;;;5128197;27;20051;-80
2021/04/06 13:54:36;;;;;;;12.13;2.28;;;;;;;;;;5114964;27;20042;-82
2021/04/06 13:57:03;;;;;;;12.32;2.70;;;;;;;;;;5120415;27;20054;-80
2021/04/06 13:59:30;;;;;;;12.57;2.65;;;;;;;;;;5132410;27;20039;-83
2021/04/06 14:01:56;;;;;;;8.82;1.85;;;;;;;;;;5115870;27;20462;-82
2021/04/06 14:04:22;;;;;;;9.63;1.90;;;;;;;;;;5131731;27;20043;-80
2021/04/06 14:06:49;;;;;;;12.18;1.75;;;;;;;;;;5091897;27;20085;-77
2021/04/06 14:09:16;;;;;;;9.05;1.50;;;;;;;;;;5121236;27;20052;-83
2021/04/06 14:11:43;;;;;;;13.68;2.17;;;;;;;;;;5133419;27;20035;-78
2021/04/06 14:14:09;;;;;;;12.43;2.00;;;;;;;;;;5135703;27;20035;-78
2021/04/06 14:16:35;;;;;;;8.15;1.50;;;;;;;;;;5125654;27;20067;-79
2021/04/06 14:19:01;;;;;;;20.65;2.92;;;;;;;;;;5135292;27;20042;-79
2021/04/06 14:21:27;;;;;;;13.75;3.25;;;;;;;;;;5135754;27;20040;-78
2021/04/06 14:23:53;;;;;;;11.88;1.73;;;;;;;;;;5111943;27;20035;-78
2021/04/06 14:26:20;;;;;;;9.73;1.70;;;;;;;;;;5118638;27;20122;-81
2021/04/06 14:28:46;;;;;;;10.10;1.55;;;;;;;;;;5111193;27;20553;-79
2021/04/06 14:31:13;;;;;;;7.43;2.15;;;;;;;;;;5127693;27;20047;-78
2021/04/06 14:33:39;;;;;;;8.65;1.40;;;;;;;;;;5119453;27;20035;-80
2021/04/06 14:36:05;;;;;;;5.63;1.35;;;;;;;;;;5130152;27;20050;-80
2021/04/06 14:38:32;;;;;;;7.63;1.60;;;;;;;;;;5112083;27;20130;-74
2021/04/06 14:40:58;;;;;;;11.07;1.63;;;;;;;;;;5107657;27;20129;-76
2021/04/06 14:43:27;;;;;;;5.57;1.27;;;;;;;;;;5121980;27;20039;-76